createdAt,value
2018-09-14T00:00:21.895Z,12.73
2018-09-14T00:02:50.103Z,12.33
2018-09-14T00:05:19.022Z,13.53
2018-09-14T00:07:47.246Z,12.87
2018-09-14T00:10:15.539Z,13.20
2018-09-14T00:12:43.797Z,14.33
2018-09-14T00:15:12.022Z,13.87
2018-09-14T00:17:40.249Z,15.10
2018-09-14T00:20:09.126Z,15.63
2018-09-14T00:22:37.362Z,14.80
2018-09-14T00:25:05.578Z,14.00
2018-09-14T00:27:33.811Z,14.53
2018-09-14T00:30:02.066Z,15.53
2018-09-14T00:32:30.840Z,15.43
2018-09-14T00:34:59.198Z,14.97
2018-09-14T00:37:27.692Z,15.43
2018-09-14T00:39:55.909Z,15.77
2018-09-14T00:42:24.158Z,16.50
2018-09-14T00:44:52.439Z,16.20
2018-09-14T00:47:21.534Z,16.70
2018-09-14T00:49:49.745Z,16.47
2018-09-14T00:52:18.011Z,16.73
2018-09-14T00:54:46.371Z,16.30
2018-09-14T00:57:14.738Z,19.67
2018-09-14T00:59:43.023Z,19.07
2018-09-14T01:02:11.259Z,19.50
2018-09-14T01:04:39.494Z,21.00
2018-09-14T01:07:07.823Z,19.37
2018-09-14T01:09:36.083Z,19.20
2018-09-14T01:12:04.306Z,20.57
2018-09-14T01:14:32.845Z,21.13
2018-09-14T01:17:01.271Z,22.07
2018-09-14T01:19:29.555Z,21.97
2018-09-14T01:21:57.811Z,21.37
2018-09-14T01:24:26.167Z,21.83
2018-09-14T01:26:54.403Z,23.00
2018-09-14T01:29:22.762Z,24.30
2018-09-14T01:31:50.983Z,23.10
2018-09-14T01:34:19.419Z,24.43
2018-09-14T01:36:47.694Z,24.37
2018-09-14T01:39:16.822Z,23.83
2018-09-14T01:41:45.331Z,23.60
2018-09-14T01:44:13.566Z,24.20
2018-09-14T01:46:41.782Z,25.13
2018-09-14T01:49:10.014Z,25.67
2018-09-14T01:51:38.344Z,25.63
2018-09-14T01:54:06.601Z,24.87
2018-09-14T01:56:34.818Z,25.77
2018-09-14T01:59:03.432Z,26.47
2018-09-14T02:01:31.739Z,26.03
2018-09-14T02:04:00.098Z,26.03
2018-09-14T02:06:29.514Z,24.67
2018-09-14T02:08:57.738Z,26.93
2018-09-14T02:11:26.040Z,26.37
2018-09-14T02:13:54.263Z,24.77
2018-09-14T02:16:22.591Z,25.80
2018-09-14T02:18:50.836Z,24.20
2018-09-14T02:21:19.044Z,26.40
2018-09-14T02:23:47.256Z,23.90
2018-09-14T02:26:15.675Z,25.33
2018-09-14T02:28:43.965Z,26.73
2018-09-14T02:31:12.196Z,26.83
2018-09-14T02:33:40.422Z,26.50
2018-09-14T02:36:08.907Z,25.43
2018-09-14T02:38:37.317Z,26.60
2018-09-14T02:41:05.623Z,26.93
2018-09-14T02:43:33.860Z,26.57
2018-09-14T02:46:02.075Z,26.33
2018-09-14T02:48:30.375Z,25.73
2018-09-14T02:50:58.634Z,26.97
2018-09-14T02:53:26.931Z,26.67
2018-09-14T02:55:55.168Z,27.33
2018-09-14T02:58:23.473Z,27.57
2018-09-14T03:00:52.068Z,26.97
2018-09-14T03:03:20.287Z,26.20
2018-09-14T03:05:48.513Z,25.47
2018-09-14T03:08:16.794Z,26.47
2018-09-14T03:10:45.692Z,26.70
2018-09-14T03:13:14.173Z,25.20
2018-09-14T03:15:42.395Z,26.70
2018-09-14T03:18:10.692Z,26.90
2018-09-14T03:20:38.926Z,26.93
2018-09-14T03:23:07.281Z,27.53
2018-09-14T03:25:35.507Z,27.97
2018-09-14T03:28:03.758Z,28.83
2018-09-14T03:30:31.986Z,27.83
2018-09-14T03:33:00.202Z,27.33
2018-09-14T03:35:28.842Z,27.60
2018-09-14T03:37:57.060Z,28.57
2018-09-14T03:40:25.285Z,29.23
2018-09-14T03:42:53.585Z,27.77
2018-09-14T03:45:21.895Z,27.17
2018-09-14T03:47:50.125Z,29.40
2018-09-14T03:50:18.332Z,30.07
2018-09-14T03:52:46.566Z,28.27
2018-09-14T03:55:15.092Z,30.50
2018-09-14T03:57:43.363Z,28.47
2018-09-14T04:00:11.589Z,29.03
2018-09-14T04:02:39.912Z,29.30
2018-09-14T04:05:08.334Z,27.93
2018-09-14T04:07:36.689Z,28.90
2018-09-14T04:10:05.013Z,29.63
2018-09-14T04:12:33.234Z,29.40
2018-09-14T04:15:01.666Z,29.73
2018-09-14T04:17:29.965Z,26.47
2018-09-14T04:19:58.220Z,28.77
2018-09-14T04:22:26.456Z,29.33
2018-09-14T04:24:54.666Z,28.80
2018-09-14T04:27:22.944Z,27.73
2018-09-14T04:29:51.479Z,27.37
2018-09-14T04:32:19.682Z,28.87
2018-09-14T04:34:47.880Z,27.53
2018-09-14T04:37:16.234Z,29.20
2018-09-14T04:39:44.538Z,28.80
2018-09-14T04:42:12.733Z,28.00
2018-09-14T04:44:40.958Z,29.30
2018-09-14T04:47:09.934Z,28.47
2018-09-14T04:49:50.519Z,29.33
2018-09-14T04:52:19.001Z,29.80
2018-09-14T04:54:47.177Z,28.87
2018-09-14T04:57:15.535Z,28.33
2018-09-14T04:59:43.769Z,28.43
2018-09-14T05:02:11.950Z,30.30
2018-09-14T05:04:40.121Z,29.70
2018-09-14T05:07:08.498Z,30.23
2018-09-14T05:09:36.754Z,30.17
2018-09-14T05:12:04.978Z,30.40
2018-09-14T05:14:33.186Z,30.60
2018-09-14T05:17:01.462Z,30.00
2018-09-14T05:19:29.666Z,30.77
2018-09-14T05:21:57.862Z,30.97
2018-09-14T05:24:26.041Z,29.27
2018-09-14T05:26:54.482Z,31.40
2018-09-14T05:29:22.790Z,32.03
2018-09-14T05:31:51.313Z,30.90
2018-09-14T05:34:19.503Z,30.67
2018-09-14T05:36:47.672Z,30.57
2018-09-14T05:39:16.101Z,31.90
2018-09-14T05:41:45.465Z,31.77
2018-09-14T05:44:14.144Z,29.70
2018-09-14T05:46:42.318Z,31.47
2018-09-14T05:49:10.533Z,30.47
2018-09-14T05:51:39.725Z,32.47
2018-09-14T05:54:08.045Z,32.40
2018-09-14T05:56:36.225Z,31.90
2018-09-14T05:59:04.620Z,31.00
2018-09-14T06:01:33.140Z,31.03
2018-09-14T06:04:01.973Z,29.73
2018-09-14T06:06:30.509Z,31.17
2018-09-14T06:08:58.815Z,30.87
2018-09-14T06:11:26.989Z,30.43
2018-09-14T06:13:55.238Z,29.10
2018-09-14T06:16:23.696Z,31.57
2018-09-14T06:18:52.217Z,31.13
2018-09-14T06:21:20.427Z,30.27
2018-09-14T06:23:48.587Z,27.73
2018-09-14T06:26:16.784Z,29.63
2018-09-14T06:28:45.104Z,30.77
2018-09-14T06:31:13.288Z,30.13
2018-09-14T06:33:41.486Z,29.23
2018-09-14T06:36:09.690Z,28.63
2018-09-14T06:38:38.465Z,28.07
2018-09-14T06:41:07.193Z,27.87
2018-09-14T06:43:35.381Z,27.17
2018-09-14T06:46:03.569Z,25.97
2018-09-14T06:48:31.802Z,25.40
2018-09-14T06:51:00.101Z,26.33
2018-09-14T06:53:28.325Z,26.43
2018-09-14T06:55:56.494Z,26.13
2018-09-14T06:58:24.966Z,26.73
2018-09-14T07:00:53.153Z,25.77
2018-09-14T07:03:21.355Z,23.47
2018-09-14T07:05:49.592Z,24.00
2018-09-14T07:08:17.758Z,24.57
2018-09-14T07:10:46.444Z,23.10
2018-09-14T07:13:14.746Z,23.50
2018-09-14T07:15:42.904Z,24.17
2018-09-14T07:18:11.109Z,24.40
2018-09-14T07:20:39.352Z,24.17
2018-09-14T07:23:07.689Z,22.57
2018-09-14T07:25:35.885Z,21.83
2018-09-14T07:28:04.103Z,21.63
2018-09-14T07:30:32.282Z,20.40
2018-09-14T07:33:00.580Z,20.47
2018-09-14T07:35:28.762Z,20.53
2018-09-14T07:37:56.940Z,21.53
2018-09-14T07:40:25.154Z,20.90
2018-09-14T07:42:53.449Z,21.23
2018-09-14T07:45:21.694Z,21.10
2018-09-14T07:47:49.906Z,21.13
2018-09-14T07:50:18.084Z,20.43
2018-09-14T07:52:46.338Z,20.07
2018-09-14T07:55:14.949Z,19.67
2018-09-14T07:57:43.090Z,19.00
2018-09-14T08:00:11.289Z,18.80
2018-09-14T08:02:39.515Z,18.03
2018-09-14T08:05:07.913Z,18.70
2018-09-14T08:07:36.457Z,17.03
2018-09-14T08:10:04.665Z,18.10
2018-09-14T08:12:32.916Z,14.50
2018-09-14T08:15:01.794Z,17.60
2018-09-14T08:17:30.008Z,15.73
2018-09-14T08:19:58.261Z,17.70
2018-09-14T08:22:26.378Z,17.40
2018-09-14T08:24:54.563Z,16.37
2018-09-14T08:27:23.681Z,16.03
2018-09-14T08:29:52.350Z,17.93
2018-09-14T08:32:20.608Z,17.00
2018-09-14T08:34:48.739Z,18.60
2018-09-14T08:37:16.941Z,17.67
2018-09-14T08:39:45.133Z,15.57
2018-09-14T08:42:13.321Z,17.47
2018-09-14T08:44:41.505Z,16.50
2018-09-14T08:47:09.670Z,16.50
2018-09-14T08:49:37.930Z,18.07
2018-09-14T08:52:06.213Z,17.47
2018-09-14T08:54:34.520Z,15.80
2018-09-14T08:57:02.702Z,17.63
2018-09-14T08:59:31.029Z,16.97
2018-09-14T09:01:59.258Z,16.83
2018-09-14T09:04:27.453Z,15.27
2018-09-14T09:06:55.750Z,15.90
2018-09-14T09:09:24.179Z,14.78
2018-09-14T09:11:52.436Z,13.40
2018-09-14T09:14:20.662Z,13.80
2018-09-14T09:16:48.925Z,12.90
2018-09-14T09:19:17.188Z,14.80
2018-09-14T09:21:45.802Z,13.13
2018-09-14T09:24:14.025Z,13.72
2018-09-14T09:26:42.239Z,15.28
2018-09-14T09:29:10.468Z,15.05
2018-09-14T09:31:39.329Z,14.13
2018-09-14T09:34:07.701Z,14.77
2018-09-14T09:36:35.933Z,13.93
2018-09-14T09:39:07.913Z,13.40
2018-09-14T09:41:36.117Z,12.57
2018-09-14T09:44:04.369Z,13.70
2018-09-14T09:46:32.581Z,11.90
2018-09-14T09:49:00.789Z,11.93
2018-09-14T09:51:28.992Z,12.13
2018-09-14T09:53:57.250Z,11.30
2018-09-14T09:56:25.477Z,13.63
2018-09-14T09:58:53.886Z,12.40
2018-09-14T10:01:27.883Z,11.90
2018-09-14T10:04:01.634Z,12.33
2018-09-14T10:06:29.832Z,11.80
2018-09-14T10:08:58.057Z,12.60
2018-09-14T10:11:26.975Z,11.75
2018-09-14T10:13:55.296Z,11.15
2018-09-14T10:16:23.705Z,10.40
2018-09-14T10:18:52.046Z,10.50
2018-09-14T10:21:20.367Z,10.48
2018-09-14T10:23:48.560Z,9.25
2018-09-14T10:26:16.774Z,7.60
2018-09-14T10:28:45.197Z,8.10
2018-09-14T10:31:13.394Z,8.98
2018-09-14T10:33:41.624Z,11.12
2018-09-14T10:36:09.828Z,10.40
2018-09-14T10:38:38.222Z,9.90
2018-09-14T10:41:06.529Z,10.18
2018-09-14T10:43:34.730Z,9.35
2018-09-14T10:46:02.990Z,8.85
2018-09-14T10:48:31.349Z,10.13
2018-09-14T10:50:59.713Z,10.63
2018-09-14T10:53:27.954Z,9.58
2018-09-14T10:55:56.187Z,9.08
2018-09-14T10:58:24.457Z,10.32
2018-09-14T11:00:52.821Z,10.40
2018-09-14T11:03:21.009Z,9.40
2018-09-14T11:05:49.231Z,10.18
2018-09-14T11:08:17.460Z,9.60
2018-09-14T11:10:45.766Z,9.28
2018-09-14T11:13:14.182Z,8.83
2018-09-14T11:15:42.389Z,8.97
2018-09-14T11:18:10.647Z,8.70
2018-09-14T11:20:39.494Z,8.80
2018-09-14T11:23:07.690Z,9.83
2018-09-14T11:25:35.904Z,9.63
2018-09-14T11:28:04.091Z,9.70
2018-09-14T11:30:32.274Z,9.17
2018-09-14T11:33:00.659Z,9.77
2018-09-14T11:35:28.853Z,8.70
2018-09-14T11:37:57.149Z,8.07
2018-09-14T11:40:25.225Z,8.40
2018-09-14T11:42:54.122Z,9.73
2018-09-14T11:45:22.381Z,9.20
2018-09-14T11:47:50.495Z,8.27
2018-09-14T11:50:18.699Z,8.03
2018-09-14T11:52:46.872Z,7.90
2018-09-14T11:55:16.175Z,7.90
2018-09-14T11:57:44.565Z,8.43
2018-09-14T12:00:12.766Z,7.70
2018-09-14T12:02:40.962Z,6.57
2018-09-14T12:05:09.892Z,7.90
2018-09-14T12:07:39.154Z,7.33
2018-09-14T12:10:08.397Z,8.60
2018-09-14T12:12:36.649Z,7.55
2018-09-14T12:15:04.945Z,8.10
2018-09-14T12:17:33.169Z,7.42
2018-09-14T12:20:01.463Z,7.35
2018-09-14T12:22:29.782Z,6.50
2018-09-14T12:24:58.006Z,6.03
2018-09-14T12:27:26.295Z,7.08
2018-09-14T12:29:55.464Z,6.58
2018-09-14T12:32:23.865Z,7.53
2018-09-14T12:34:52.200Z,7.47
2018-09-14T12:37:20.713Z,7.72
2018-09-14T12:39:48.934Z,7.25
2018-09-14T12:42:17.250Z,7.12
2018-09-14T12:44:45.526Z,7.08
2018-09-14T12:47:13.730Z,7.67
2018-09-14T12:49:41.958Z,7.35
2018-09-14T12:52:10.149Z,7.42
2018-09-14T12:54:38.407Z,7.97
2018-09-14T12:57:06.689Z,7.70
2018-09-14T12:59:35.030Z,6.92
2018-09-14T13:02:03.246Z,7.85
2018-09-14T13:04:31.506Z,6.90
2018-09-14T13:06:59.845Z,7.58
2018-09-14T13:09:28.034Z,7.55
2018-09-14T13:11:56.249Z,7.83
2018-09-14T13:14:24.543Z,7.62
2018-09-14T13:16:52.764Z,7.50
2018-09-14T13:19:21.417Z,8.23
2018-09-14T13:21:49.665Z,7.80
2018-09-14T13:24:24.494Z,8.13
2018-09-14T13:26:52.704Z,7.85
2018-09-14T13:29:21.217Z,7.42
2018-09-14T13:31:49.490Z,7.92
2018-09-14T13:34:17.722Z,6.60
2018-09-14T13:36:46.289Z,8.63
2018-09-14T13:39:14.577Z,7.33
2018-09-14T13:41:42.796Z,8.00
2018-09-14T13:44:11.117Z,7.00
2018-09-14T13:46:39.420Z,7.08
2018-09-14T13:49:07.858Z,7.40
2018-09-14T13:51:36.080Z,7.33
2018-09-14T13:54:05.551Z,7.35
2018-09-14T13:56:34.030Z,7.87
2018-09-14T13:59:03.277Z,7.80
2018-09-14T14:01:31.655Z,8.13
2018-09-14T14:04:00.700Z,7.27
2018-09-14T14:06:30.167Z,7.30
2018-09-14T14:08:58.406Z,7.40
2018-09-14T14:11:26.646Z,6.57
2018-09-14T14:13:54.853Z,6.63
2018-09-14T14:16:23.333Z,7.30
2018-09-14T14:18:51.583Z,7.40
2018-09-14T14:21:19.859Z,7.90
2018-09-14T14:23:48.064Z,7.10
2018-09-14T14:26:16.725Z,7.90
2018-09-14T14:28:46.155Z,8.50
2018-09-14T14:31:15.595Z,7.00
2018-09-14T14:33:43.825Z,6.87
2018-09-14T14:36:12.029Z,7.67
2018-09-14T14:38:40.244Z,7.23
2018-09-14T14:41:08.613Z,7.93
2018-09-14T14:43:36.750Z,7.40
2018-09-14T14:46:05.121Z,7.57
2018-09-14T14:48:33.513Z,7.00
2018-09-14T14:51:02.821Z,7.22
2018-09-14T14:53:31.103Z,6.12
2018-09-14T14:56:00.324Z,7.07
2018-09-14T14:58:28.428Z,6.10
2018-09-14T15:00:56.711Z,7.20
2018-09-14T15:03:24.959Z,6.37
2018-09-14T15:05:53.341Z,6.53
2018-09-14T15:08:21.737Z,6.47
2018-09-14T15:10:50.152Z,6.40
2018-09-14T15:13:18.350Z,5.22
2018-09-14T15:15:46.751Z,6.00
2018-09-14T15:18:15.739Z,6.08
2018-09-14T15:20:43.949Z,6.40
2018-09-14T15:23:12.155Z,5.30
2018-09-14T15:25:40.417Z,6.80
2018-09-14T15:28:08.688Z,6.37
2018-09-14T15:30:36.897Z,5.95
2018-09-14T15:33:05.124Z,5.95
2018-09-14T15:35:33.289Z,5.77
2018-09-14T15:38:01.586Z,6.97
2018-09-14T15:40:29.950Z,5.90
2018-09-14T15:42:58.142Z,6.67
2018-09-14T15:45:26.512Z,6.33
2018-09-14T15:47:55.032Z,6.30
2018-09-14T15:50:23.234Z,5.73
2018-09-14T15:52:51.427Z,5.80
2018-09-14T15:55:19.621Z,5.73
2018-09-14T15:57:47.843Z,6.40
2018-09-14T16:00:16.000Z,6.53
2018-09-14T16:02:44.230Z,6.30
2018-09-14T16:05:12.521Z,5.40
2018-09-14T16:07:40.702Z,6.07
2018-09-14T16:10:08.997Z,6.50
2018-09-14T16:12:37.263Z,6.53
2018-09-14T16:15:05.432Z,6.67
2018-09-14T16:17:33.619Z,5.50
2018-09-14T16:20:02.402Z,5.87
2018-09-14T16:22:31.501Z,5.20
2018-09-14T16:24:59.690Z,6.03
2018-09-14T16:27:27.906Z,6.37
2018-09-14T16:29:56.131Z,5.97
2018-09-14T16:32:24.361Z,5.63
2018-09-14T16:34:52.890Z,5.13
2018-09-14T16:37:21.148Z,5.63
2018-09-14T16:39:49.237Z,5.37
2018-09-14T16:42:17.525Z,5.87
2018-09-14T16:44:45.748Z,5.90
2018-09-14T16:47:13.940Z,5.97
2018-09-14T16:49:42.180Z,6.10
2018-09-14T16:52:10.398Z,6.27
2018-09-14T16:54:38.657Z,5.53
2018-09-14T16:57:06.885Z,6.00
2018-09-14T16:59:35.124Z,6.07
2018-09-14T17:02:03.421Z,5.80
2018-09-14T17:04:31.726Z,5.87
2018-09-14T17:07:00.023Z,5.47
2018-09-14T17:09:28.211Z,5.37
2018-09-14T17:11:57.671Z,6.10
2018-09-14T17:14:25.848Z,5.83
2018-09-14T17:16:54.302Z,5.90
2018-09-14T17:19:22.518Z,5.97
2018-09-14T17:21:51.089Z,5.97
2018-09-14T17:24:19.356Z,5.60
2018-09-14T17:26:47.520Z,6.23
2018-09-14T17:29:15.697Z,5.93
2018-09-14T17:31:46.842Z,5.57
2018-09-14T17:34:15.177Z,6.00
2018-09-14T17:36:43.364Z,6.07
2018-09-14T17:39:11.582Z,6.37
2018-09-14T17:41:39.817Z,5.80
2018-09-14T17:44:08.248Z,5.97
2018-09-14T17:46:36.477Z,6.07
2018-09-14T17:49:04.689Z,5.67
2018-09-14T17:51:32.898Z,6.13
2018-09-14T17:54:01.333Z,5.40
2018-09-14T17:56:29.529Z,7.07
2018-09-14T17:58:58.202Z,5.90
2018-09-14T18:01:28.145Z,6.43
2018-09-14T18:03:56.336Z,6.00
2018-09-14T18:06:24.541Z,5.90
2018-09-14T18:08:52.785Z,6.33
2018-09-14T18:11:21.023Z,7.60
2018-09-14T18:13:49.205Z,7.57
2018-09-14T18:16:17.697Z,6.73
2018-09-14T18:18:46.040Z,6.33
2018-09-14T18:21:14.294Z,6.93
2018-09-14T18:23:42.606Z,6.50
2018-09-14T18:26:10.822Z,7.40
2018-09-14T18:28:39.133Z,6.73
2018-09-14T18:31:07.492Z,6.83
2018-09-14T18:33:35.717Z,6.27
2018-09-14T18:36:04.045Z,7.47
2018-09-14T18:38:32.270Z,8.43
2018-09-14T18:41:00.496Z,8.37
2018-09-14T18:43:28.746Z,7.87
2018-09-14T18:45:56.978Z,7.37
2018-09-14T18:48:25.361Z,7.50
2018-09-14T18:50:53.557Z,7.47
2018-09-14T18:53:21.782Z,7.37
2018-09-14T18:55:50.101Z,7.90
2018-09-14T18:58:18.421Z,7.27
2018-09-14T19:00:46.726Z,7.93
2018-09-14T19:03:14.951Z,6.43
2018-09-14T19:05:43.871Z,6.90
2018-09-14T19:08:12.223Z,6.63
2018-09-14T19:10:42.291Z,7.37
2018-09-14T19:13:10.598Z,6.70
2018-09-14T19:15:38.912Z,7.07
2018-09-14T19:18:07.478Z,8.40
2018-09-14T19:20:35.873Z,9.27
2018-09-14T19:23:04.221Z,8.77
2018-09-14T19:25:32.425Z,8.70
2018-09-14T19:28:00.926Z,10.87
2018-09-14T19:30:29.123Z,9.20
2018-09-14T19:32:59.497Z,9.27
2018-09-14T19:35:27.844Z,8.80
2018-09-14T19:37:56.078Z,8.57
2018-09-14T19:40:32.100Z,8.63
2018-09-14T19:43:00.512Z,9.17
2018-09-14T19:45:28.742Z,10.10
2018-09-14T19:47:57.502Z,9.80
2018-09-14T19:50:25.809Z,9.23
2018-09-14T19:52:54.015Z,9.10
2018-09-14T19:55:22.219Z,8.17
2018-09-14T19:57:50.507Z,9.80
2018-09-14T20:00:18.801Z,9.93
2018-09-14T20:02:47.096Z,10.53
2018-09-14T20:05:15.312Z,8.97
2018-09-14T20:07:43.546Z,9.73
2018-09-14T20:10:11.766Z,8.43
2018-09-14T20:12:39.986Z,9.57
2018-09-14T20:15:08.309Z,10.07
2018-09-14T20:17:36.686Z,10.27
2018-09-14T20:20:05.081Z,9.67
2018-09-14T20:22:33.471Z,11.53
2018-09-14T20:25:01.990Z,10.40
2018-09-14T20:27:30.238Z,10.33
2018-09-14T20:29:58.504Z,10.23
2018-09-14T20:32:26.787Z,10.27
2018-09-14T20:34:55.037Z,9.97
2018-09-14T20:37:23.327Z,11.10
2018-09-14T20:39:51.498Z,10.70
2018-09-14T20:42:19.840Z,11.90
2018-09-14T20:44:48.129Z,11.67
2018-09-14T20:47:16.449Z,11.10
2018-09-14T20:49:44.779Z,11.30
2018-09-14T20:52:13.065Z,11.03
2018-09-14T20:54:41.334Z,10.43
2018-09-14T20:57:09.628Z,11.47
2018-09-14T20:59:37.825Z,10.80
2018-09-14T21:02:06.250Z,10.87
2018-09-14T21:04:34.886Z,10.97
2018-09-14T21:07:03.094Z,10.80
2018-09-14T21:09:31.393Z,10.57
2018-09-14T21:11:59.629Z,10.13
2018-09-14T21:14:27.849Z,10.33
2018-09-14T21:16:56.054Z,10.70
2018-09-14T21:19:24.314Z,10.97
2018-09-14T21:21:52.534Z,10.53
2018-09-14T21:24:20.849Z,11.43
2018-09-14T21:26:49.086Z,11.97
2018-09-14T21:29:17.348Z,10.90
2018-09-14T21:31:45.622Z,10.93
2018-09-14T21:34:13.816Z,11.77
2018-09-14T21:36:42.031Z,11.27
2018-09-14T21:39:11.226Z,11.83
2018-09-14T21:41:39.794Z,12.33
2018-09-14T21:44:08.525Z,12.00
2018-09-14T21:46:37.028Z,11.70
2018-09-14T21:49:05.316Z,12.67
2018-09-14T21:51:33.792Z,13.50
2018-09-14T21:54:02.109Z,12.63
2018-09-14T21:56:30.291Z,13.23
2018-09-14T21:58:58.518Z,12.97
2018-09-14T22:01:27.534Z,12.77
2018-09-14T22:03:56.559Z,13.33
2018-09-14T22:06:24.981Z,14.33
2018-09-14T22:08:53.339Z,12.60
2018-09-14T22:11:21.565Z,13.37
2018-09-14T22:13:50.389Z,13.07
2018-09-14T22:16:18.749Z,13.57
2018-09-14T22:18:46.948Z,12.30
2018-09-14T22:21:15.133Z,13.43
2018-09-14T22:23:43.369Z,14.13
2018-09-14T22:26:11.600Z,13.80
2018-09-14T22:28:39.841Z,13.53
2018-09-14T22:31:08.206Z,13.37
2018-09-14T22:33:36.540Z,12.73
2018-09-14T22:36:04.744Z,13.83
2018-09-14T22:38:32.958Z,14.73
2018-09-14T22:41:01.403Z,14.37
2018-09-14T22:43:29.601Z,14.03
2018-09-14T22:45:57.837Z,13.10
2018-09-14T22:48:26.030Z,13.20
2018-09-14T22:50:54.401Z,13.33
2018-09-14T22:53:22.877Z,13.73
2018-09-14T22:55:51.090Z,13.83
2018-09-14T22:58:19.313Z,13.20
2018-09-14T23:00:53.033Z,12.47
2018-09-14T23:03:21.236Z,13.23
2018-09-14T23:05:49.464Z,13.83
2018-09-14T23:08:17.715Z,14.33
2018-09-14T23:10:45.977Z,13.70
2018-09-14T23:13:14.273Z,14.53
2018-09-14T23:15:53.132Z,15.07
2018-09-14T23:18:21.334Z,14.50
2018-09-14T23:20:49.545Z,14.00
2018-09-14T23:23:17.891Z,14.77
2018-09-14T23:25:46.192Z,15.10
2018-09-14T23:28:14.491Z,13.70
2018-09-14T23:30:49.653Z,14.73
2018-09-14T23:33:18.084Z,15.40
2018-09-14T23:35:46.461Z,14.17
2018-09-14T23:38:14.712Z,13.87
2018-09-14T23:40:42.924Z,14.40
2018-09-14T23:43:11.126Z,15.30
2018-09-14T23:45:40.202Z,15.60
2018-09-14T23:48:08.535Z,17.13
2018-09-14T23:50:36.821Z,17.30
2018-09-14T23:53:05.061Z,17.77
2018-09-14T23:55:33.801Z,17.57
2018-09-14T23:58:02.090Z,18.73
